Time;durP1;ratioP1;P1;durP2;ratioP2;P2;SDS_P1;SDS_P2;PMS_P1;PMS_P2;Temp;Humidity;BMP_temperature;BMP_pressure;BME280_temperature;BME280_humidity;BME280_pressure;Samples;Min_cycle;Max_cycle;Signal;HPM_P1;HPM_P2
2023/06/17 00:02:11;;;;;;;10.98;9.88;;;;;;;18.75;66.60;99931.69;5132786;28;20203;-66
2023/06/17 00:04:39;;;;;;;12.02;9.82;;;;;;;18.64;66.85;99941.75;5133021;28;20223;-66
2023/06/17 00:07:07;;;;;;;12.85;9.50;;;;;;;18.55;66.98;99934.34;5133814;27;20738;-66
2023/06/17 00:09:35;;;;;;;10.27;9.27;;;;;;;18.49;66.91;99934.66;5141932;27;20290;-68
2023/06/17 00:12:04;;;;;;;10.13;9.13;;;;;;;18.47;67.01;99931.25;5132574;28;20202;-67
2023/06/17 00:14:32;;;;;;;9.93;8.80;;;;;;;18.42;66.51;99930.63;5133055;28;20195;-67
2023/06/17 00:17:02;;;;;;;10.23;9.18;;;;;;;18.35;66.94;99932.66;5132891;28;20260;-66
2023/06/17 00:19:30;;;;;;;8.85;7.93;;;;;;;18.29;66.71;99927.72;5133127;28;20610;-67
2023/06/17 00:21:57;;;;;;;10.60;8.73;;;;;;;18.25;66.95;99929.59;5131812;27;20628;-67
2023/06/17 00:24:25;;;;;;;9.00;8.15;;;;;;;18.20;67.06;99926.38;5135855;27;20219;-66
2023/06/17 00:26:53;;;;;;;8.70;7.88;;;;;;;18.20;67.80;99928.97;5093561;27;1109998;-66
2023/06/17 00:29:21;;;;;;;8.93;8.10;;;;;;;18.18;67.37;99922.97;5132383;27;20207;-66
2023/06/17 00:31:49;;;;;;;9.05;8.20;;;;;;;18.14;67.75;99918.81;5132999;27;20678;-67
2023/06/17 00:34:19;;;;;;;9.63;8.73;;;;;;;18.12;67.88;99918.06;5133189;27;20639;-67
2023/06/17 00:36:47;;;;;;;10.25;8.43;;;;;;;18.10;68.39;99917.25;5134349;27;20195;-66
2023/06/17 00:39:15;;;;;;;10.80;9.50;;;;;;;18.11;68.78;99918.94;5140269;27;20206;-67
2023/06/17 00:41:45;;;;;;;10.32;9.43;;;;;;;18.11;68.56;99918.94;5133032;27;20195;-68
2023/06/17 00:44:13;;;;;;;10.32;9.27;;;;;;;18.18;69.03;99915.16;5133320;27;20211;-67
2023/06/17 00:46:48;;;;;;;11.00;9.90;;;;;;;18.20;68.99;99915.94;5133223;27;20248;-65
2023/06/17 00:49:17;;;;;;;10.10;9.10;;;;;;;18.21;69.24;99916.78;5133277;27;20252;-67
2023/06/17 00:51:46;;;;;;;11.38;10.27;;;;;;;18.15;69.32;99914.44;5132791;27;20237;-67
2023/06/17 00:54:32;;;;;;;10.10;9.20;;;;;;;18.06;69.77;99913.94;5140177;27;20205;-67
2023/06/17 00:57:01;;;;;;;11.45;8.27;;;;;;;17.97;69.59;99914.38;5119457;27;20669;-67
2023/06/17 00:59:32;;;;;;;9.35;8.25;;;;;;;17.91;69.50;99912.03;5133628;27;20638;-67
2023/06/17 01:02:00;;;;;;;9.35;8.45;;;;;;;17.93;69.96;99910.19;5132805;27;20199;-67
2023/06/17 01:04:29;;;;;;;9.55;8.63;;;;;;;18.00;70.32;99903.78;5132233;27;20215;-67
2023/06/17 01:07:03;;;;;;;9.23;8.30;;;;;;;18.03;69.95;99902.81;5131252;27;20211;-67
2023/06/17 01:09:36;;;;;;;13.23;11.93;;;;;;;18.10;69.91;99909.44;5135732;27;20201;-67
2023/06/17 01:12:07;;;;;;;10.48;8.38;;;;;;;18.14;70.21;99907.53;5133494;27;20618;-68
2023/06/17 01:14:40;;;;;;;7.32;6.63;;;;;;;18.16;69.24;99905.72;5132954;27;20191;-67
2023/06/17 01:17:12;;;;;;;6.85;6.15;;;;;;;18.17;68.11;99912.63;5132729;27;20251;-67
2023/06/17 01:19:48;;;;;;;7.55;5.57;;;;;;;18.16;67.39;99909.16;5133134;27;20242;-66
2023/06/17 01:22:18;;;;;;;5.68;5.18;;;;;;;18.10;67.19;99902.47;5132067;27;20238;-67
2023/06/17 01:24:49;;;;;;;6.78;6.03;;;;;;;18.05;67.26;99908.81;5132807;27;20679;-68
2023/06/17 01:27:17;;;;;;;5.95;5.45;;;;;;;17.99;67.30;99914.28;5130398;27;20223;-67
2023/06/17 01:29:48;;;;;;;5.70;5.20;;;;;;;17.92;66.96;99908.50;5132758;27;20203;-66
2023/06/17 01:32:17;;;;;;;5.40;4.47;;;;;;;17.90;67.19;99912.09;5132576;27;20209;-67
2023/06/17 01:34:55;;;;;;;6.25;5.32;;;;;;;17.87;67.34;99913.06;5132700;27;20221;-67
2023/06/17 01:37:29;;;;;;;5.82;5.22;;;;;;;17.78;67.60;99916.06;5132970;27;20666;-67
2023/06/17 01:40:01;;;;;;;5.07;4.60;;;;;;;17.62;67.77;99914.09;5132267;27;20609;-71
2023/06/17 01:42:32;;;;;;;4.97;4.47;;;;;;;17.54;68.15;99913.56;5132527;27;20202;-71
2023/06/17 01:45:03;;;;;;;6.25;5.10;;;;;;;17.46;68.31;99909.59;5145726;27;20219;-71
2023/06/17 01:47:32;;;;;;;5.63;5.13;;;;;;;17.40;69.07;99910.69;5132722;27;20252;-71
2023/06/17 01:50:02;;;;;;;5.30;4.80;;;;;;;17.41;68.95;99907.16;5131982;27;20225;-71
2023/06/17 01:52:30;;;;;;;5.10;4.70;;;;;;;17.45;69.03;99905.28;5132350;27;20290;-71
2023/06/17 01:55:00;;;;;;;5.18;4.68;;;;;;;17.47;68.99;99903.47;5131998;27;20199;-70
2023/06/17 01:57:28;;;;;;;5.85;4.90;;;;;;;17.45;68.62;99898.31;5130868;27;20234;-71
2023/06/17 01:59:57;;;;;;;4.82;4.43;;;;;;;17.44;68.73;99895.78;5129804;27;20207;-71
2023/06/17 02:02:25;;;;;;;5.57;5.07;;;;;;;17.41;68.92;99891.53;5131869;27;20549;-71
2023/06/17 02:04:53;;;;;;;5.85;5.35;;;;;;;17.44;69.24;99880.16;5132180;27;20215;-71
2023/06/17 02:07:25;;;;;;;5.82;5.25;;;;;;;17.51;69.34;99889.41;5132146;27;20283;-71
2023/06/17 02:09:53;;;;;;;5.40;4.90;;;;;;;17.51;69.26;99878.97;5131799;27;20286;-72
2023/06/17 02:12:23;;;;;;;5.30;4.80;;;;;;;17.51;68.94;99872.00;5132402;27;20563;-71
2023/06/17 02:14:51;;;;;;;4.63;4.22;;;;;;;17.55;69.19;99877.94;5132234;27;20210;-71
2023/06/17 02:17:19;;;;;;;4.90;4.50;;;;;;;17.51;68.94;99874.63;5130297;27;20714;-70
2023/06/17 02:19:47;;;;;;;4.72;4.32;;;;;;;17.43;69.19;99883.69;5132062;28;20538;-70
2023/06/17 02:22:15;;;;;;;4.60;4.20;;;;;;;17.41;69.79;99869.88;5131781;28;20206;-71
2023/06/17 02:24:43;;;;;;;4.80;4.40;;;;;;;17.44;70.32;99881.00;5132239;27;20555;-62
2023/06/17 02:27:12;;;;;;;5.20;4.70;;;;;;;17.45;70.92;99871.41;5131654;28;20239;-66
2023/06/17 02:29:41;;;;;;;5.25;4.75;;;;;;;17.50;71.17;99872.94;5132111;28;20195;-71
2023/06/17 02:32:09;;;;;;;5.72;4.72;;;;;;;17.54;70.65;99877.09;5130707;27;20638;-71
2023/06/17 02:34:37;;;;;;;6.43;4.35;;;;;;;17.54;70.28;99871.03;5144468;27;20231;-68
2023/06/17 02:37:07;;;;;;;4.97;4.57;;;;;;;17.56;70.43;99867.47;5131949;28;20211;-69
2023/06/17 02:39:35;;;;;;;4.70;3.88;;;;;;;17.56;70.17;99864.00;5131807;28;20654;-67
2023/06/17 02:42:04;;;;;;;4.65;4.25;;;;;;;17.54;69.75;99861.47;5131930;28;20755;-65
2023/06/17 02:44:32;;;;;;;4.80;4.38;;;;;;;17.50;68.99;99853.84;5131850;28;20232;-64
2023/06/17 02:47:02;;;;;;;5.57;3.80;;;;;;;17.51;68.72;99863.34;5130120;27;20209;-67
2023/06/17 02:49:30;;;;;;;5.38;4.07;;;;;;;17.49;68.76;99857.34;5130241;27;20208;-67
2023/06/17 02:51:58;;;;;;;4.28;3.88;;;;;;;17.53;68.78;99861.53;5131644;28;20208;-67
2023/06/17 02:54:26;;;;;;;5.30;3.97;;;;;;;17.54;68.57;99856.25;5132025;28;20203;-67
2023/06/17 02:56:54;;;;;;;4.35;3.95;;;;;;;17.60;68.16;99849.94;5131512;28;20199;-66
2023/06/17 02:59:23;;;;;;;4.97;4.35;;;;;;;17.58;68.13;99851.75;5131673;28;20264;-67
2023/06/17 03:01:51;;;;;;;4.38;3.78;;;;;;;17.56;68.04;99854.44;5129813;27;20268;-68
2023/06/17 03:04:20;;;;;;;3.95;3.55;;;;;;;17.56;68.19;99856.19;5131833;28;20628;-66
2023/06/17 03:06:50;;;;;;;4.45;4.05;;;;;;;17.58;68.25;99862.19;5142964;27;20199;-68
2023/06/17 03:09:19;;;;;;;4.80;4.35;;;;;;;17.63;68.72;99857.59;5131429;28;20203;-67
2023/06/17 03:11:47;;;;;;;4.95;4.43;;;;;;;17.65;69.17;99852.34;5131286;28;20673;-68
2023/06/17 03:14:19;;;;;;;4.78;4.38;;;;;;;17.63;69.32;99855.84;5131615;28;20211;-67
2023/06/17 03:16:47;;;;;;;4.93;4.35;;;;;;;17.68;69.32;99857.44;5129800;27;20203;-68
2023/06/17 03:19:15;;;;;;;5.45;4.22;;;;;;;17.67;69.47;99850.50;5133849;27;20600;-71
2023/06/17 03:21:45;;;;;;;4.25;3.95;;;;;;;17.70;69.39;99850.38;5134929;27;20282;-71
2023/06/17 03:24:12;;;;;;;5.05;4.53;;;;;;;17.68;69.77;99863.47;5136595;27;20216;-63
2023/06/17 03:26:41;;;;;;;4.88;4.30;;;;;;;17.59;69.62;99861.25;5134864;27;20215;-63
2023/06/17 03:29:09;;;;;;;5.00;4.50;;;;;;;17.48;70.56;99866.09;5134901;27;20196;-64
2023/06/17 03:31:37;;;;;;;5.22;4.72;;;;;;;17.41;70.70;99862.03;5134895;27;20211;-64
2023/06/17 03:34:05;;;;;;;5.57;4.60;;;;;;;17.35;70.87;99874.44;5135307;27;20204;-63
2023/06/17 03:36:33;;;;;;;5.05;4.57;;;;;;;17.31;70.89;99864.22;5134790;27;20203;-64
2023/06/17 03:39:03;;;;;;;5.03;4.57;;;;;;;17.28;71.06;99879.97;5135393;27;20223;-68
2023/06/17 03:41:31;;;;;;;5.20;4.70;;;;;;;17.20;71.17;99872.47;5132912;27;20290;-66
2023/06/17 03:44:00;;;;;;;5.97;4.85;;;;;;;17.10;71.05;99876.34;5135052;27;20276;-67
2023/06/17 03:46:28;;;;;;;5.40;4.60;;;;;;;17.07;71.59;99879.09;5134144;27;20211;-68
2023/06/17 03:48:56;;;;;;;6.30;4.75;;;;;;;17.03;71.65;99882.72;5134671;27;20256;-67
2023/06/17 03:51:24;;;;;;;5.35;4.40;;;;;;;17.00;71.80;99883.69;5134464;27;20210;-67
2023/06/17 03:53:52;;;;;;;5.60;5.10;;;;;;;17.00;71.91;99878.47;5134887;27;20199;-68
2023/06/17 03:56:21;;;;;;;8.52;6.15;;;;;;;17.06;72.11;99874.78;5138418;27;20187;-68
2023/06/17 03:58:49;;;;;;;7.15;6.43;;;;;;;17.08;72.22;99870.34;5134578;27;20223;-67
2023/06/17 04:01:17;;;;;;;6.85;6.15;;;;;;;17.13;72.37;99877.09;5133988;27;20290;-68
2023/06/17 04:03:46;;;;;;;5.93;5.43;;;;;;;17.16;72.49;99865.69;5134233;27;20192;-67
2023/06/17 04:06:14;;;;;;;6.50;5.90;;;;;;;17.18;72.35;99869.06;5134097;27;20230;-66
2023/06/17 04:08:46;;;;;;;6.78;6.18;;;;;;;17.21;72.60;99866.34;5134451;27;20244;-68
2023/06/17 04:11:15;;;;;;;7.22;5.97;;;;;;;17.25;72.34;99860.09;5133880;27;20199;-68
2023/06/17 04:13:45;;;;;;;9.98;6.15;;;;;;;17.28;72.51;99859.13;5132691;27;20192;-67
2023/06/17 04:16:15;;;;;;;7.32;6.00;;;;;;;17.29;72.44;99861.66;5133615;27;20195;-66
2023/06/17 04:18:43;;;;;;;7.28;6.63;;;;;;;17.30;72.71;99858.13;5133363;27;20283;-67
2023/06/17 04:21:11;;;;;;;8.30;6.43;;;;;;;17.30;72.69;99858.13;5133711;27;20211;-69
2023/06/17 04:23:39;;;;;;;10.02;7.20;;;;;;;17.32;73.33;99855.47;5133766;27;20215;-68
2023/06/17 04:26:12;;;;;;;7.82;6.80;;;;;;;17.36;73.29;99857.88;5134218;27;20251;-68
2023/06/17 04:28:40;;;;;;;7.78;6.97;;;;;;;17.42;72.90;99863.75;5133429;27;20243;-67
2023/06/17 04:31:10;;;;;;;7.80;6.10;;;;;;;17.46;72.84;99857.50;5135985;27;20243;-68
2023/06/17 04:33:40;;;;;;;8.05;6.90;;;;;;;17.52;71.99;99862.44;5134025;27;20535;-69
2023/06/17 04:36:09;;;;;;;7.75;6.95;;;;;;;17.53;71.76;99861.53;5133679;27;20199;-68
2023/06/17 04:38:38;;;;;;;7.82;7.03;;;;;;;17.55;71.73;99857.09;5133943;27;20235;-68
2023/06/17 04:41:06;;;;;;;9.70;7.40;;;;;;;17.57;71.84;99861.34;5133278;27;20204;-66
2023/06/17 04:43:36;;;;;;;8.32;7.43;;;;;;;17.62;71.77;99858.53;5133823;27;20232;-66
2023/06/17 04:46:05;;;;;;;8.40;7.55;;;;;;;17.66;71.65;99859.25;5133098;27;20219;-66
2023/06/17 04:48:36;;;;;;;9.18;8.27;;;;;;;17.70;71.42;99860.78;5133795;27;20612;-67
2023/06/17 04:51:06;;;;;;;9.32;7.70;;;;;;;17.72;71.32;99862.44;5133429;27;20259;-65
2023/06/17 04:53:34;;;;;;;10.00;8.85;;;;;;;17.73;71.26;99858.91;5133699;27;20223;-67
2023/06/17 04:56:04;;;;;;;10.27;9.27;;;;;;;17.72;71.86;99859.81;5133453;27;20195;-67
2023/06/17 04:58:32;;;;;;;10.60;9.48;;;;;;;17.74;71.43;99857.97;5133580;27;20239;-66
2023/06/17 05:01:00;;;;;;;11.23;9.70;;;;;;;17.79;71.62;99861.28;5134258;27;20209;-67
2023/06/17 05:03:28;;;;;;;10.63;9.52;;;;;;;17.85;71.82;99855.78;5135921;27;20678;-66
2023/06/17 05:05:58;;;;;;;11.60;10.10;;;;;;;17.95;71.80;99861.44;5133551;27;20273;-66
2023/06/17 05:08:26;;;;;;;12.40;9.75;;;;;;;18.08;71.56;99861.75;5133369;27;20710;-67
2023/06/17 05:10:56;;;;;;;12.88;9.93;;;;;;;18.23;70.84;99860.19;5132769;27;20203;-67
2023/06/17 05:13:24;;;;;;;10.13;8.70;;;;;;;18.41;70.12;99854.13;5133206;27;20214;-68
2023/06/17 05:15:52;;;;;;;9.23;8.32;;;;;;;18.52;70.06;99851.84;5132211;27;20230;-66
2023/06/17 05:18:20;;;;;;;11.20;9.05;;;;;;;18.77;69.16;99861.97;5131843;27;20662;-66
2023/06/17 05:20:48;;;;;;;9.48;8.45;;;;;;;18.97;68.36;99863.63;5145918;27;20238;-67
2023/06/17 05:23:17;;;;;;;9.52;8.32;;;;;;;19.25;67.83;99863.09;5134362;27;20199;-66
2023/06/17 05:25:46;;;;;;;9.43;8.25;;;;;;;19.74;66.18;99860.63;5132672;27;20215;-67
2023/06/17 05:28:14;;;;;;;8.00;7.20;;;;;;;20.66;64.03;99858.28;5131181;27;20313;-66
2023/06/17 05:30:43;;;;;;;7.72;6.03;;;;;;;20.79;60.96;99860.19;5132199;27;20230;-67
2023/06/17 05:33:11;;;;;;;6.82;5.97;;;;;;;20.46;60.17;99864.56;5132928;27;20626;-66
2023/06/17 05:35:39;;;;;;;7.53;6.22;;;;;;;20.14;61.75;99866.38;5142476;27;20214;-67
2023/06/17 05:38:07;;;;;;;8.00;7.00;;;;;;;19.88;62.56;99866.88;5132480;27;20206;-66
2023/06/17 05:40:36;;;;;;;7.55;6.57;;;;;;;19.74;63.35;99865.00;5132005;27;20218;-68
2023/06/17 05:43:04;;;;;;;8.20;6.47;;;;;;;19.69;63.82;99873.06;5132382;27;20210;-66
2023/06/17 05:45:32;;;;;;;6.45;5.82;;;;;;;19.60;64.32;99868.31;5132774;27;20295;-67
2023/06/17 05:48:00;;;;;;;7.20;6.43;;;;;;;19.69;64.49;99862.63;5130762;27;20207;-67
2023/06/17 05:50:28;;;;;;;6.88;6.18;;;;;;;19.91;63.70;99864.09;5132280;27;20210;-67
2023/06/17 05:52:56;;;;;;;6.47;5.88;;;;;;;20.23;63.01;99865.84;5129535;27;20206;-67
2023/06/17 05:55:24;;;;;;;6.30;5.70;;;;;;;20.45;62.10;99867.28;5132135;27;20227;-67
2023/06/17 05:57:54;;;;;;;9.35;5.78;;;;;;;20.58;60.92;99867.47;5132405;27;20274;-68
2023/06/17 06:00:23;;;;;;;6.28;5.78;;;;;;;20.66;60.60;99866.13;5130813;27;20195;-66
2023/06/17 06:02:51;;;;;;;6.63;5.97;;;;;;;20.75;60.44;99865.59;5132447;27;20199;-67
2023/06/17 06:05:19;;;;;;;7.22;6.22;;;;;;;20.87;59.77;99864.06;5130466;27;20211;-67
2023/06/17 06:07:47;;;;;;;7.82;7.10;;;;;;;21.58;61.06;99870.47;5133555;27;20218;-67
2023/06/17 06:10:15;;;;;;;6.32;5.78;;;;;;;22.93;55.79;99862.06;5129125;27;20191;-67
2023/06/17 06:12:43;;;;;;;5.97;5.38;;;;;;;23.42;52.33;99867.53;5132169;27;20226;-67
2023/06/17 06:15:12;;;;;;;5.50;5.00;;;;;;;23.74;50.84;99862.69;5129364;27;20207;-66
2023/06/17 06:17:40;;;;;;;5.88;5.28;;;;;;;24.27;50.08;99866.00;5120071;27;20551;-66
2023/06/17 06:20:08;;;;;;;6.97;5.30;;;;;;;24.27;47.81;99863.38;5131448;28;20203;-66
2023/06/17 06:22:38;;;;;;;7.22;5.78;;;;;;;24.90;46.77;99866.75;5132109;27;20207;-67
2023/06/17 06:25:07;;;;;;;5.95;5.45;;;;;;;25.82;44.86;99874.81;5131974;28;20679;-67
2023/06/17 06:27:35;;;;;;;5.75;5.13;;;;;;;27.06;42.05;99867.47;5117388;28;20293;-66
2023/06/17 06:30:04;;;;;;;4.50;4.18;;;;;;;27.99;39.99;99861.41;5131377;28;20214;-66
2023/06/17 06:32:33;;;;;;;5.60;5.10;;;;;;;27.96;39.23;99865.16;5134214;27;20195;-66
2023/06/17 06:35:03;;;;;;;5.15;4.72;;;;;;;27.92;38.71;99856.63;5140817;27;20203;-67
2023/06/17 06:37:31;;;;;;;4.82;4.30;;;;;;;27.28;38.72;99871.84;5131917;28;20289;-64
2023/06/17 06:39:59;;;;;;;4.38;3.97;;;;;;;26.59;40.67;99872.25;5117197;28;20226;-66
2023/06/17 06:42:27;;;;;;;4.68;4.28;;;;;;;25.87;41.60;99873.47;5128894;27;20199;-65
2023/06/17 06:44:55;;;;;;;4.68;4.28;;;;;;;25.30;42.26;99871.69;5131585;28;20199;-66
2023/06/17 06:47:23;;;;;;;4.63;4.22;;;;;;;25.33;42.51;99886.44;5127451;27;20227;-67
2023/06/17 06:49:53;;;;;;;4.90;4.50;;;;;;;25.96;42.38;99878.06;5131570;28;20653;-66
2023/06/17 06:52:21;;;;;;;4.82;4.43;;;;;;;27.56;40.07;99865.91;5131588;27;20264;-66
2023/06/17 06:54:49;;;;;;;4.03;3.72;;;;;;;29.10;36.45;99866.50;5135620;27;20267;-66
2023/06/17 06:57:17;;;;;;;6.13;4.30;;;;;;;30.24;33.09;99864.66;5135734;27;20203;-67
2023/06/17 06:59:45;;;;;;;4.57;4.18;;;;;;;29.63;34.57;99871.31;5135338;27;20634;-66
2023/06/17 07:02:13;;;;;;;4.35;3.95;;;;;;;29.56;33.87;99865.69;5135060;27;20574;-66
2023/06/17 07:04:43;;;;;;;4.05;3.75;;;;;;;29.97;33.92;99868.09;5141362;27;20202;-65
2023/06/17 07:07:12;;;;;;;4.88;3.97;;;;;;;32.45;30.36;99861.78;5120990;27;20214;-66
2023/06/17 07:09:40;;;;;;;4.00;3.55;;;;;;;34.76;26.88;99862.81;5138652;27;20717;-66
2023/06/17 07:12:09;;;;;;;3.63;3.30;;;;;;;36.37;24.46;99856.94;5136699;27;20195;-67
2023/06/17 07:14:38;;;;;;;3.75;3.45;;;;;;;36.22;23.95;99850.78;5139623;27;20206;-65
2023/06/17 07:17:06;;;;;;;3.90;3.60;;;;;;;35.28;24.10;99856.69;5136997;27;20611;-67
2023/06/17 07:19:34;;;;;;;3.33;3.13;;;;;;;34.75;25.48;99854.94;5135191;27;20240;-72
2023/06/17 07:22:03;;;;;;;3.05;2.85;;;;;;;33.67;26.20;99867.16;5133579;27;20199;-71
2023/06/17 07:24:32;;;;;;;3.33;3.03;;;;;;;32.60;27.56;99860.16;5131163;27;20680;-67
2023/06/17 07:27:00;;;;;;;3.70;3.40;;;;;;;31.21;28.87;99863.91;5133430;27;20227;-71
2023/06/17 07:29:30;;;;;;;4.18;3.70;;;;;;;29.90;30.93;99874.97;5131470;27;20231;-73
2023/06/17 07:31:58;;;;;;;3.28;3.08;;;;;;;28.48;33.34;99867.69;5134432;27;20203;-63
2023/06/17 07:34:26;;;;;;;4.18;3.83;;;;;;;27.22;35.68;99873.22;5134367;27;20242;-62
2023/06/17 07:36:54;;;;;;;4.07;3.78;;;;;;;26.26;38.48;99873.94;5134901;27;20570;-63
2023/06/17 07:39:23;;;;;;;4.40;4.00;;;;;;;25.75;39.76;99869.13;5134535;27;20211;-63
2023/06/17 07:41:53;;;;;;;3.97;3.67;;;;;;;25.49;40.48;99869.34;5135138;27;20572;-70
2023/06/17 07:44:21;;;;;;;6.95;4.40;;;;;;;25.41;41.31;99866.44;5134853;27;20680;-71
2023/06/17 07:46:49;;;;;;;4.28;3.92;;;;;;;25.33;40.99;99862.69;5135038;27;20211;-71
2023/06/17 07:49:17;;;;;;;4.43;4.03;;;;;;;24.91;42.60;99863.13;5130229;27;20207;-72
2023/06/17 07:51:45;;;;;;;4.50;4.10;;;;;;;24.75;43.49;99865.25;5130720;27;20203;-66
2023/06/17 07:54:13;;;;;;;5.22;4.40;;;;;;;24.62;44.35;99867.06;5132536;27;20199;-66
2023/06/17 07:56:41;;;;;;;5.57;4.72;;;;;;;24.62;43.90;99859.16;5133682;27;20206;-66
2023/06/17 07:59:10;;;;;;;4.93;4.53;;;;;;;24.54;44.55;99859.72;5134671;27;20203;-66
2023/06/17 08:01:39;;;;;;;5.20;4.70;;;;;;;24.64;43.08;99873.91;5134530;27;20234;-66
2023/06/17 08:04:07;;;;;;;6.15;4.70;;;;;;;24.58;43.75;99872.56;5132159;27;20207;-65
2023/06/17 08:06:35;;;;;;;5.13;4.63;;;;;;;24.72;43.65;99873.34;5134550;27;20207;-66
2023/06/17 08:09:04;;;;;;;4.97;4.53;;;;;;;24.85;43.44;99863.56;5134141;27;20260;-65
2023/06/17 08:11:31;;;;;;;5.10;4.63;;;;;;;25.10;42.72;99859.13;5129299;27;20693;-67
2023/06/17 08:13:59;;;;;;;5.10;4.65;;;;;;;25.42;42.27;99865.50;5134024;27;20218;-67
2023/06/17 08:16:29;;;;;;;6.22;4.82;;;;;;;25.64;42.09;99858.56;5133699;27;20212;-66
2023/06/17 08:18:57;;;;;;;5.20;4.70;;;;;;;25.70;41.56;99855.44;5132992;27;20223;-66
2023/06/17 08:21:26;;;;;;;5.53;5.00;;;;;;;25.76;40.92;99847.88;5133768;27;20222;-66
2023/06/17 08:23:54;;;;;;;5.38;4.88;;;;;;;25.85;41.00;99849.03;5134181;27;20207;-67
2023/06/17 08:26:23;;;;;;;5.32;4.93;;;;;;;25.85;41.90;99851.66;5138759;27;20203;-66
2023/06/17 08:28:51;;;;;;;5.43;4.93;;;;;;;25.63;42.45;99852.44;5137325;27;20246;-66
2023/06/17 08:31:19;;;;;;;5.30;4.80;;;;;;;25.74;42.60;99847.19;5133462;27;20215;-66
2023/06/17 08:33:48;;;;;;;5.10;4.70;;;;;;;25.97;42.10;99842.75;5132798;27;20256;-66
2023/06/17 08:36:16;;;;;;;6.43;5.00;;;;;;;26.19;41.62;99841.91;5133861;27;20198;-67
2023/06/17 08:38:45;;;;;;;4.97;4.53;;;;;;;26.38;41.00;99838.63;5133791;27;20248;-66
2023/06/17 08:41:13;;;;;;;4.80;4.35;;;;;;;26.38;40.38;99835.97;5129383;27;20207;-65
2023/06/17 08:43:42;;;;;;;5.28;4.78;;;;;;;25.96;39.20;99841.09;5124963;27;20242;-66
2023/06/17 08:46:10;;;;;;;5.15;4.68;;;;;;;25.72;40.22;99835.88;5132026;27;20190;-65
2023/06/17 08:48:38;;;;;;;5.78;4.53;;;;;;;25.68;40.71;99842.38;5133448;27;20211;-66
2023/06/17 08:51:08;;;;;;;5.47;4.97;;;;;;;25.63;40.59;99841.03;5133602;27;20271;-68
2023/06/17 08:53:37;;;;;;;4.95;4.22;;;;;;;25.63;40.89;99833.13;5119039;27;20248;-66
2023/06/17 08:56:05;;;;;;;5.18;4.50;;;;;;;25.56;41.24;99843.31;5133159;27;20234;-66
2023/06/17 08:58:37;;;;;;;5.10;4.65;;;;;;;25.64;41.37;99835.66;5133028;27;20278;-67
2023/06/17 09:01:07;;;;;;;5.03;4.57;;;;;;;26.07;40.85;99834.09;5132922;27;20213;-67
2023/06/17 09:03:36;;;;;;;5.90;4.68;;;;;;;26.46;40.58;99827.47;5135662;27;20232;-66
2023/06/17 09:06:14;;;;;;;5.15;4.45;;;;;;;26.69;39.48;99829.03;5133434;27;20199;-66
2023/06/17 09:08:44;;;;;;;4.70;4.20;;;;;;;26.53;39.58;99839.22;5133155;27;20211;-66
2023/06/17 09:11:12;;;;;;;4.47;4.18;;;;;;;26.19;40.01;99836.63;5133000;27;20199;-65
2023/06/17 09:13:40;;;;;;;4.15;3.83;;;;;;;25.85;40.39;99841.09;5132308;27;20195;-67
2023/06/17 09:16:08;;;;;;;4.13;3.83;;;;;;;25.70;40.62;99834.31;5131443;27;20249;-67
2023/06/17 09:18:36;;;;;;;4.70;4.30;;;;;;;25.56;40.68;99838.06;5130859;27;20207;-67
2023/06/17 09:21:04;;;;;;;4.93;4.00;;;;;;;25.39;41.69;99836.69;5132072;27;20237;-66
2023/06/17 09:23:32;;;;;;;4.43;3.72;;;;;;;25.27;42.19;99837.66;5129723;27;20204;-67
2023/06/17 09:26:02;;;;;;;5.38;4.47;;;;;;;25.37;42.17;99838.63;5132674;27;20283;-67
2023/06/17 09:28:31;;;;;;;5.53;5.03;;;;;;;25.12;42.00;99831.72;5132584;27;20235;-71
2023/06/17 09:31:04;;;;;;;4.53;4.13;;;;;;;24.97;42.93;99838.13;5117997;27;20210;-63
2023/06/17 09:33:31;;;;;;;4.95;4.40;;;;;;;25.10;42.54;99832.75;5132796;27;20297;-64
2023/06/17 09:36:00;;;;;;;5.03;4.63;;;;;;;25.29;41.91;99830.44;5132533;27;20578;-66
2023/06/17 09:38:28;;;;;;;4.70;4.30;;;;;;;25.26;42.03;99823.63;5135417;27;20206;-64
2023/06/17 09:40:56;;;;;;;4.80;4.40;;;;;;;25.33;42.54;99831.88;5132497;27;20199;-62
2023/06/17 09:43:27;;;;;;;5.10;4.63;;;;;;;25.35;42.62;99819.44;5132685;27;20610;-64
2023/06/17 09:45:59;;;;;;;5.28;4.88;;;;;;;25.44;42.56;99829.28;5132802;27;20206;-62
2023/06/17 09:48:30;;;;;;;4.15;3.85;;;;;;;25.53;41.67;99828.56;5132049;27;20251;-64
2023/06/17 09:50:59;;;;;;;4.75;4.35;;;;;;;25.61;40.82;99827.13;5128613;27;20213;-63
2023/06/17 09:53:29;;;;;;;4.50;4.10;;;;;;;25.80;40.80;99823.94;5129259;27;20210;-63
2023/06/17 09:55:59;;;;;;;4.85;4.30;;;;;;;25.86;40.52;99829.56;5131829;27;20633;-62
2023/06/17 09:58:31;;;;;;;4.82;4.32;;;;;;;25.38;41.00;99829.75;5132315;27;20628;-64
2023/06/17 10:01:01;;;;;;;9.18;4.40;;;;;;;25.18;41.82;99822.50;5136916;27;20206;-63
2023/06/17 10:03:29;;;;;;;4.88;4.47;;;;;;;24.97;41.69;99819.69;5134354;27;20191;-62
2023/06/17 10:06:08;;;;;;;5.60;4.50;;;;;;;24.70;42.65;99833.94;5131933;27;20205;-64
2023/06/17 10:08:37;;;;;;;4.80;4.40;;;;;;;24.38;43.16;99831.00;5131678;27;20215;-63
2023/06/17 10:11:05;;;;;;;5.90;4.63;;;;;;;24.28;43.49;99837.88;5131668;27;20290;-64
2023/06/17 10:13:37;;;;;;;4.85;4.50;;;;;;;24.49;43.13;99827.63;5131812;27;20251;-62
2023/06/17 10:16:08;;;;;;;6.03;4.60;;;;;;;25.19;41.55;99826.84;5126709;27;20199;-63
2023/06/17 10:18:39;;;;;;;4.32;4.03;;;;;;;26.15;39.70;99821.16;5125453;27;20237;-64
2023/06/17 10:21:11;;;;;;;5.18;4.78;;;;;;;27.25;36.43;99817.41;5132097;28;20569;-64
2023/06/17 10:23:41;;;;;;;4.15;3.85;;;;;;;27.37;34.98;99816.34;5131593;27;20248;-64
2023/06/17 10:26:11;;;;;;;4.85;4.45;;;;;;;26.70;36.22;99825.47;5132118;28;20555;-64
2023/06/17 10:28:45;;;;;;;4.85;4.55;;;;;;;26.12;37.61;99821.38;5136238;27;20242;-64
2023/06/17 10:31:21;;;;;;;6.22;5.03;;;;;;;25.34;40.30;99828.31;5135941;27;20195;-63
2023/06/17 10:33:49;;;;;;;5.93;5.43;;;;;;;24.70;41.67;99822.56;5136155;27;20221;-63
2023/06/17 10:36:18;;;;;;;5.57;5.07;;;;;;;24.18;43.68;99826.31;5134874;27;20559;-63
2023/06/17 10:38:53;;;;;;;6.57;5.85;;;;;;;23.71;44.72;99841.03;5136268;27;20666;-63
2023/06/17 10:41:22;;;;;;;6.70;6.10;;;;;;;23.28;46.42;99838.69;5135783;27;20284;-63
2023/06/17 10:43:51;;;;;;;9.77;6.35;;;;;;;22.98;47.32;99846.84;5136090;27;20218;-63
2023/06/17 10:46:26;;;;;;;7.18;6.50;;;;;;;22.72;47.96;99844.09;5133480;27;20929;-63
2023/06/17 10:48:59;;;;;;;7.57;6.57;;;;;;;22.48;49.64;99846.53;5133540;27;20258;-62
2023/06/17 10:51:30;;;;;;;7.63;6.90;;;;;;;22.32;49.81;99849.28;5135754;27;20566;-63
2023/06/17 10:54:27;;;;;;;8.43;6.63;;;;;;;22.19;49.29;99846.56;5135561;27;20203;-63
2023/06/17 10:56:55;;;;;;;7.15;6.55;;;;;;;22.17;49.60;99858.13;5135475;27;20203;-63
2023/06/17 10:59:26;;;;;;;7.75;7.05;;;;;;;22.11;49.51;99851.44;5135463;27;20493;-64
2023/06/17 11:02:01;;;;;;;7.93;7.22;;;;;;;22.04;49.52;99841.44;5135432;27;20220;-62
2023/06/17 11:04:30;;;;;;;7.50;6.90;;;;;;;21.90;49.69;99839.66;5135829;27;20553;-63
2023/06/17 11:06:59;;;;;;;8.77;7.32;;;;;;;21.91;49.98;99849.22;5143626;27;20664;-62
2023/06/17 11:09:27;;;;;;;7.18;6.57;;;;;;;21.91;49.90;99846.59;5134963;27;20212;-63
2023/06/17 11:11:55;;;;;;;7.93;7.22;;;;;;;21.93;50.48;99847.34;5135247;27;20211;-63
2023/06/17 11:14:28;;;;;;;10.43;9.43;;;;;;;21.89;50.35;99853.72;5135383;27;20205;-64
2023/06/17 11:16:55;;;;;;;7.28;6.68;;;;;;;21.93;50.72;99849.97;5135449;27;20207;-64
2023/06/17 11:19:24;;;;;;;8.27;7.38;;;;;;;21.94;50.84;99849.88;5133173;27;20289;-64
2023/06/17 11:21:57;;;;;;;7.72;7.05;;;;;;;21.98;51.44;99842.63;5134968;27;20260;-64
2023/06/17 11:24:26;;;;;;;7.25;6.38;;;;;;;22.04;51.55;99849.28;5134227;27;20252;-65
2023/06/17 11:26:55;;;;;;;6.95;6.38;;;;;;;22.10;51.22;99847.13;5135062;27;20534;-62
2023/06/17 11:29:25;;;;;;;7.32;6.72;;;;;;;22.15;50.91;99844.25;5134775;27;20279;-64
2023/06/17 11:31:54;;;;;;;7.57;6.88;;;;;;;22.26;50.40;99844.41;5133419;27;20302;-64
2023/06/17 11:34:23;;;;;;;8.60;6.82;;;;;;;22.43;49.85;99838.94;5131755;27;20662;-64
2023/06/17 11:36:53;;;;;;;7.07;6.47;;;;;;;22.55;48.54;99841.72;5134413;27;20562;-63
2023/06/17 11:39:23;;;;;;;6.78;6.20;;;;;;;22.64;48.18;99831.47;5132470;27;20261;-64
2023/06/17 11:41:52;;;;;;;8.00;7.10;;;;;;;22.71;48.31;99836.31;5133218;27;20211;-64